sensor_id;sensor_type;location;lat;lon;timestamp;pressure;altitude;pressure_sealevel;temperature;humidity
69766;BME280;57039;48.014;21.384;2022-11-20T00:00:04;100451.19;;;0.53;99.04
69766;BME280;57039;48.014;21.384;2022-11-20T00:01:11;100456.34;;;0.53;98.96
69766;BME280;57039;48.014;21.384;2022-11-20T00:02:14;100452.91;;;0.54;98.85
69766;BME280;57039;48.014;21.384;2022-11-20T00:03:17;100458.06;;;0.54;98.86
69766;BME280;57039;48.014;21.384;2022-11-20T00:04:19;100441.72;;;0.55;98.86
69766;BME280;57039;48.014;21.384;2022-11-20T00:05:22;100439.12;;;0.55;98.94
69766;BME280;57039;48.014;21.384;2022-11-20T00:06:26;100436.53;;;0.55;98.91
69766;BME280;57039;48.014;21.384;2022-11-20T00:07:29;100427.97;;;0.55;98.27
69766;BME280;57039;48.014;21.384;2022-11-20T00:08:33;100421.06;;;0.54;98.22
69766;BME280;57039;48.014;21.384;2022-11-20T00:09:35;100415.06;;;0.55;98.23
69766;BME280;57039;48.014;21.384;2022-11-20T00:10:39;100417.63;;;0.55;98.28
69766;BME280;57039;48.014;21.384;2022-11-20T00:11:41;100405.59;;;0.54;98.49
69766;BME280;57039;48.014;21.384;2022-11-20T00:12:45;100414.19;;;0.54;98.66
69766;BME280;57039;48.014;21.384;2022-11-20T00:13:55;100415.91;;;0.55;99.17
69766;BME280;57039;48.014;21.384;2022-11-20T00:14:59;100424.53;;;0.54;99.30
69766;BME280;57039;48.014;21.384;2022-11-20T00:16:05;100430.53;;;0.55;99.36
69766;BME280;57039;48.014;21.384;2022-11-20T00:17:08;100442.62;;;0.51;98.84
69766;BME280;57039;48.014;21.384;2022-11-20T00:18:11;100454.66;;;0.52;99.12
69766;BME280;57039;48.014;21.384;2022-11-20T00:19:14;100452.91;;;0.53;98.85
69766;BME280;57039;48.014;21.384;2022-11-20T00:20:17;100464.06;;;0.56;98.94
69766;BME280;57039;48.014;21.384;2022-11-20T00:21:24;100468.41;;;0.54;98.81
69766;BME280;57039;48.014;21.384;2022-11-20T00:22:27;100477.84;;;0.54;99.06
69766;BME280;57039;48.014;21.384;2022-11-20T00:23:31;100479.56;;;0.53;98.63
69766;BME280;57039;48.014;21.384;2022-11-20T00:24:34;100485.63;;;0.52;97.98
69766;BME280;57039;48.014;21.384;2022-11-20T00:25:44;100479.62;;;0.52;97.87
69766;BME280;57039;48.014;21.384;2022-11-20T00:26:46;100479.56;;;0.53;98.03
69766;BME280;57039;48.014;21.384;2022-11-20T00:27:50;100476.09;;;0.56;98.28
69766;BME280;57039;48.014;21.384;2022-11-20T00:29:00;100477.87;;;0.52;97.84
69766;BME280;57039;48.014;21.384;2022-11-20T00:30:05;100478.78;;;0.50;98.04
69766;BME280;57039;48.014;21.384;2022-11-20T00:31:15;100483.94;;;0.51;98.38
69766;BME280;57039;48.014;21.384;2022-11-20T00:32:19;100479.66;;;0.49;97.72
69766;BME280;57039;48.014;21.384;2022-11-20T00:33:21;100477.03;;;0.50;97.97
69766;BME280;57039;48.014;21.384;2022-11-20T00:34:24;100486.50;;;0.51;98.21
69766;BME280;57039;48.014;21.384;2022-11-20T00:35:27;100482.16;;;0.53;98.33
69766;BME280;57039;48.014;21.384;2022-11-20T00:36:32;100469.25;;;0.55;98.51
69766;BME280;57039;48.014;21.384;2022-11-20T00:37:35;100470.06;;;0.58;98.69
69766;BME280;57039;48.014;21.384;2022-11-20T00:38:38;100471.75;;;0.61;98.66
69766;BME280;57039;48.014;21.384;2022-11-20T00:39:41;100476.00;;;0.62;98.65
69766;BME280;57039;48.014;21.384;2022-11-20T00:40:43;100474.28;;;0.62;98.53
69766;BME280;57039;48.014;21.384;2022-11-20T00:41:46;100487.19;;;0.64;98.72
69766;BME280;57039;48.014;21.384;2022-11-20T00:42:49;100485.44;;;0.64;98.60
69766;BME280;57039;48.014;21.384;2022-11-20T00:43:53;100483.78;;;0.60;98.34
69766;BME280;57039;48.014;21.384;2022-11-20T00:44:56;100483.75;;;0.62;98.43
69766;BME280;57039;48.014;21.384;2022-11-20T00:46:00;100487.19;;;0.62;98.24
69766;BME280;57039;48.014;21.384;2022-11-20T00:47:03;100500.09;;;0.64;98.25
69766;BME280;57039;48.014;21.384;2022-11-20T00:48:06;100506.16;;;0.61;98.08
69766;BME280;57039;48.014;21.384;2022-11-20T00:49:08;100524.16;;;0.64;98.08
69766;BME280;57039;48.014;21.384;2022-11-20T00:50:11;100517.28;;;0.65;98.01
69766;BME280;57039;48.014;21.384;2022-11-20T00:51:16;100516.38;;;0.67;97.80
69766;BME280;57039;48.014;21.384;2022-11-20T00:52:19;100523.25;;;0.68;97.59
69766;BME280;57039;48.014;21.384;2022-11-20T00:53:22;100511.22;;;0.67;97.80
69766;BME280;57039;48.014;21.384;2022-11-20T00:54:24;100513.84;;;0.66;97.42
69766;BME280;57039;48.014;21.384;2022-11-20T00:55:27;100512.06;;;0.68;97.42
69766;BME280;57039;48.014;21.384;2022-11-20T00:56:30;100501.72;;;0.70;97.69
69766;BME280;57039;48.014;21.384;2022-11-20T00:57:33;100505.19;;;0.67;97.75
69766;BME280;57039;48.014;21.384;2022-11-20T00:58:37;100495.78;;;0.64;97.50
69766;BME280;57039;48.014;21.384;2022-11-20T00:59:40;100491.50;;;0.63;97.57
69766;BME280;57039;48.014;21.384;2022-11-20T01:00:42;100482.91;;;0.63;97.97
69766;BME280;57039;48.014;21.384;2022-11-20T01:01:45;100477.75;;;0.61;98.14
69766;BME280;57039;48.014;21.384;2022-11-20T01:02:48;100483.75;;;0.62;98.26
69766;BME280;57039;48.014;21.384;2022-11-20T01:03:52;100486.28;;;0.65;98.52
69766;BME280;57039;48.014;21.384;2022-11-20T01:05:03;100482.91;;;0.61;98.48
69766;BME280;57039;48.014;21.384;2022-11-20T01:06:13;100497.41;;;0.68;98.71
69766;BME280;57039;48.014;21.384;2022-11-20T01:07:17;100506.03;;;0.69;98.70
69766;BME280;57039;48.014;21.384;2022-11-20T01:08:20;100511.22;;;0.69;98.74
69766;BME280;57039;48.014;21.384;2022-11-20T01:09:22;100506.03;;;0.69;98.62
69766;BME280;57039;48.014;21.384;2022-11-20T01:10:25;100508.59;;;0.71;98.75
69766;BME280;57039;48.014;21.384;2022-11-20T01:11:31;100514.59;;;0.73;98.39
69766;BME280;57039;48.014;21.384;2022-11-20T01:12:33;100512.00;;;0.73;98.34
69766;BME280;57039;48.014;21.384;2022-11-20T01:13:36;100512.91;;;0.70;98.24
69766;BME280;57039;48.014;21.384;2022-11-20T01:14:39;100513.78;;;0.69;98.04
69766;BME280;57039;48.014;21.384;2022-11-20T01:15:42;100515.50;;;0.68;98.04
69766;BME280;57039;48.014;21.384;2022-11-20T01:16:49;100517.25;;;0.66;97.99
69766;BME280;57039;48.014;21.384;2022-11-20T01:17:52;100517.28;;;0.65;98.28
69766;BME280;57039;48.014;21.384;2022-11-20T01:18:58;100516.41;;;0.66;98.36
69766;BME280;57039;48.014;21.384;2022-11-20T01:20:02;100507.78;;;0.65;98.43
69766;BME280;57039;48.014;21.384;2022-11-20T01:21:07;100496.62;;;0.66;98.67
69766;BME280;57039;48.014;21.384;2022-11-20T01:22:10;100482.03;;;0.64;98.57
69766;BME280;57039;48.014;21.384;2022-11-20T01:23:13;100477.75;;;0.61;98.66
69766;BME280;57039;48.014;21.384;2022-11-20T01:24:17;100475.16;;;0.61;99.02
69766;BME280;57039;48.014;21.384;2022-11-20T01:25:20;100471.75;;;0.61;99.01
69766;BME280;57039;48.014;21.384;2022-11-20T01:26:27;100470.91;;;0.59;98.75
69766;BME280;57039;48.014;21.384;2022-11-20T01:27:30;100481.25;;;0.57;98.85
69766;BME280;57039;48.014;21.384;2022-11-20T01:28:33;100477.81;;;0.57;98.54
69766;BME280;57039;48.014;21.384;2022-11-20T01:29:36;100459.03;;;0.49;98.80
69766;BME280;57039;48.014;21.384;2022-11-20T01:30:39;100468.34;;;0.57;99.05
69766;BME280;57039;48.014;21.384;2022-11-20T01:31:42;100466.63;;;0.56;99.04
69766;BME280;57039;48.014;21.384;2022-11-20T01:32:45;100462.31;;;0.57;98.90
69766;BME280;57039;48.014;21.384;2022-11-20T01:33:50;100467.53;;;0.54;98.82
69766;BME280;57039;48.014;21.384;2022-11-20T01:34:53;100463.25;;;0.54;98.96
69766;BME280;57039;48.014;21.384;2022-11-20T01:36:03;100463.25;;;0.54;98.89
69766;BME280;57039;48.014;21.384;2022-11-20T01:37:06;100472.69;;;0.54;98.95
69766;BME280;57039;48.014;21.384;2022-11-20T01:38:09;100470.97;;;0.54;99.05
69766;BME280;57039;48.014;21.384;2022-11-20T01:39:18;100460.66;;;0.54;98.85
69766;BME280;57039;48.014;21.384;2022-11-20T01:40:22;100464.94;;;0.55;99.13
69766;BME280;57039;48.014;21.384;2022-11-20T01:41:27;100457.19;;;0.55;99.25
69766;BME280;57039;48.014;21.384;2022-11-20T01:43:00;100459.78;;;0.54;98.99
69766;BME280;57039;48.014;21.384;2022-11-20T01:45:58;100466.59;;;0.59;99.27
69766;BME280;57039;48.014;21.384;2022-11-20T01:47:04;100471.75;;;0.59;99.10
69766;BME280;57039;48.014;21.384;2022-11-20T01:48:08;100471.75;;;0.59;99.15
69766;BME280;57039;48.014;21.384;2022-11-20T01:50:29;100451.09;;;0.59;99.15
69766;BME280;57039;48.014;21.384;2022-11-20T01:51:45;100441.59;;;0.61;99.43
69766;BME280;57039;48.014;21.384;2022-11-20T01:52:56;100440.72;;;0.62;99.41
69766;BME280;57039;48.014;21.384;2022-11-20T01:54:02;100428.75;;;0.57;99.69
69766;BME280;57039;48.014;21.384;2022-11-20T01:55:28;100439.88;;;0.63;99.69
69766;BME280;57039;48.014;21.384;2022-11-20T01:56:37;100451.94;;;0.61;99.68
69766;BME280;57039;48.014;21.384;2022-11-20T01:57:40;100446.78;;;0.61;99.71
69766;BME280;57039;48.014;21.384;2022-11-20T01:58:51;100448.50;;;0.61;99.82
69766;BME280;57039;48.014;21.384;2022-11-20T02:00:00;100449.34;;;0.61;99.99
69766;BME280;57039;48.014;21.384;2022-11-20T02:01:13;100442.50;;;0.59;99.74
69766;BME280;57039;48.014;21.384;2022-11-20T02:02:17;100427.84;;;0.61;100.00
69766;BME280;57039;48.014;21.384;2022-11-20T02:03:20;100426.97;;;0.63;100.00
69766;BME280;57039;48.014;21.384;2022-11-20T02:04:24;100432.06;;;0.66;100.00
69766;BME280;57039;48.014;21.384;2022-11-20T02:05:32;100413.31;;;0.55;100.00
69766;BME280;57039;48.014;21.384;2022-11-20T02:06:46;100423.47;;;0.66;100.00
69766;BME280;57039;48.014;21.384;2022-11-20T02:07:52;100419.97;;;0.68;100.00
69766;BME280;57039;48.014;21.384;2022-11-20T02:08:56;100430.25;;;0.72;100.00
69766;BME280;57039;48.014;21.384;2022-11-20T02:09:59;100421.75;;;0.66;99.90
69766;BME280;57039;48.014;21.384;2022-11-20T02:11:02;100419.16;;;0.66;99.61
69766;BME280;57039;48.014;21.384;2022-11-20T02:12:05;100423.44;;;0.67;99.65
69766;BME280;57039;48.014;21.384;2022-11-20T02:13:28;100413.09;;;0.69;99.76
69766;BME280;57039;48.014;21.384;2022-11-20T02:14:46;100407.97;;;0.67;99.84
69766;BME280;57039;48.014;21.384;2022-11-20T02:15:49;100403.69;;;0.66;99.67
69766;BME280;57039;48.014;21.384;2022-11-20T02:16:53;100401.97;;;0.65;99.63
69766;BME280;57039;48.014;21.384;2022-11-20T02:17:57;100402.84;;;0.66;99.50
69766;BME280;57039;48.014;21.384;2022-11-20T02:19:01;100401.91;;;0.68;99.75
69766;BME280;57039;48.014;21.384;2022-11-20T02:20:06;100400.19;;;0.69;99.81
69766;BME280;57039;48.014;21.384;2022-11-20T02:21:25;100395.94;;;0.66;99.53
69766;BME280;57039;48.014;21.384;2022-11-20T02:22:34;100398.47;;;0.70;99.88
69766;BME280;57039;48.014;21.384;2022-11-20T02:23:54;100405.31;;;0.71;100.00
69766;BME280;57039;48.014;21.384;2022-11-20T02:25:00;100401.06;;;0.68;99.88
69766;BME280;57039;48.014;21.384;2022-11-20T02:26:08;100407.94;;;0.69;99.90
69766;BME280;57039;48.014;21.384;2022-11-20T02:27:14;100399.31;;;0.70;100.00
69766;BME280;57039;48.014;21.384;2022-11-20T02:28:18;100397.63;;;0.67;100.00
69766;BME280;57039;48.014;21.384;2022-11-20T02:29:26;100396.75;;;0.68;100.00
69766;BME280;57039;48.014;21.384;2022-11-20T02:30:30;100393.31;;;0.70;100.00
69766;BME280;57039;48.014;21.384;2022-11-20T02:31:38;100393.25;;;0.71;100.00
69766;BME280;57039;48.014;21.384;2022-11-20T02:32:42;100401.00;;;0.73;100.00
69766;BME280;57039;48.014;21.384;2022-11-20T02:33:45;100405.28;;;0.74;100.00
69766;BME280;57039;48.014;21.384;2022-11-20T02:34:48;100398.38;;;0.74;100.00
69766;BME280;57039;48.014;21.384;2022-11-20T02:35:51;100400.94;;;0.76;100.00
69766;BME280;57039;48.014;21.384;2022-11-20T02:36:54;100404.38;;;0.76;100.00
69766;BME280;57039;48.014;21.384;2022-11-20T02:38:01;100404.34;;;0.78;100.00
69766;BME280;57039;48.014;21.384;2022-11-20T02:39:05;100409.50;;;0.79;100.00
69766;BME280;57039;48.014;21.384;2022-11-20T02:40:08;100405.16;;;0.81;100.00
69766;BME280;57039;48.014;21.384;2022-11-20T02:41:11;100404.31;;;0.81;100.00
69766;BME280;57039;48.014;21.384;2022-11-20T02:42:14;100396.53;;;0.82;100.00
69766;BME280;57039;48.014;21.384;2022-11-20T02:43:17;100391.34;;;0.84;100.00
69766;BME280;57039;48.014;21.384;2022-11-20T02:44:20;100391.34;;;0.84;100.00
69766;BME280;57039;48.014;21.384;2022-11-20T02:45:23;100391.34;;;0.84;100.00
69766;BME280;57039;48.014;21.384;2022-11-20T02:46:27;100393.09;;;0.80;100.00
69766;BME280;57039;48.014;21.384;2022-11-20T02:47:30;100383.72;;;0.76;100.00
69766;BME280;57039;48.014;21.384;2022-11-20T02:48:33;100392.31;;;0.78;100.00
69766;BME280;57039;48.014;21.384;2022-11-20T02:49:36;100390.50;;;0.82;100.00
69766;BME280;57039;48.014;21.384;2022-11-20T02:50:38;100392.25;;;0.81;100.00
69766;BME280;57039;48.014;21.384;2022-11-20T02:51:42;100387.09;;;0.80;100.00
69766;BME280;57039;48.014;21.384;2022-11-20T02:52:45;100386.25;;;0.79;100.00
69766;BME280;57039;48.014;21.384;2022-11-20T02:53:48;100375.06;;;0.79;100.00
69766;BME280;57039;48.014;21.384;2022-11-20T02:54:51;100384.50;;;0.80;100.00
69766;BME280;57039;48.014;21.384;2022-11-20T02:55:54;100374.22;;;0.78;100.00
69766;BME280;57039;48.014;21.384;2022-11-20T02:56:57;100373.34;;;0.79;100.00
69766;BME280;57039;48.014;21.384;2022-11-20T02:58:00;100387.09;;;0.80;100.00
69766;BME280;57039;48.014;21.384;2022-11-20T02:59:03;100375.91;;;0.79;100.00
69766;BME280;57039;48.014;21.384;2022-11-20T03:00:06;100375.03;;;0.82;100.00
69766;BME280;57039;48.014;21.384;2022-11-20T03:01:09;100370.69;;;0.82;100.00
69766;BME280;57039;48.014;21.384;2022-11-20T03:02:12;100362.94;;;0.84;100.00
69766;BME280;57039;48.014;21.384;2022-11-20T03:03:15;100368.97;;;0.83;100.00
69766;BME280;57039;48.014;21.384;2022-11-20T03:04:18;100363.84;;;0.81;100.00
69766;BME280;57039;48.014;21.384;2022-11-20T03:05:21;100369.84;;;0.82;100.00
69766;BME280;57039;48.014;21.384;2022-11-20T03:06:24;100368.09;;;0.84;100.00
69766;BME280;57039;48.014;21.384;2022-11-20T03:07:27;100367.31;;;0.79;100.00
69766;BME280;57039;48.014;21.384;2022-11-20T03:08:29;100374.97;;;0.85;100.00
69766;BME280;57039;48.014;21.384;2022-11-20T03:09:32;100366.31;;;0.86;100.00
69766;BME280;57039;48.014;21.384;2022-11-20T03:10:35;100370.62;;;0.87;100.00
69766;BME280;57039;48.014;21.384;2022-11-20T03:11:37;100368.84;;;0.89;100.00
69766;BME280;57039;48.014;21.384;2022-11-20T03:12:40;100368.91;;;0.86;100.00
69766;BME280;57039;48.014;21.384;2022-11-20T03:13:43;100368.06;;;0.85;100.00
69766;BME280;57039;48.014;21.384;2022-11-20T03:14:46;100373.22;;;0.87;100.00
69766;BME280;57039;48.014;21.384;2022-11-20T03:15:54;100376.69;;;0.84;100.00
69766;BME280;57039;48.014;21.384;2022-11-20T03:16:57;100361.22;;;0.83;100.00
69766;BME280;57039;48.014;21.384;2022-11-20T03:18:00;100364.69;;;0.82;100.00
69766;BME280;57039;48.014;21.384;2022-11-20T03:19:02;100352.63;;;0.82;100.00
69766;BME280;57039;48.014;21.384;2022-11-20T03:20:05;100351.72;;;0.85;100.00
69766;BME280;57039;48.014;21.384;2022-11-20T03:21:12;100349.16;;;0.83;100.00
69766;BME280;57039;48.014;21.384;2022-11-20T03:22:15;100345.78;;;0.81;100.00
69766;BME280;57039;48.014;21.384;2022-11-20T03:23:18;100354.41;;;0.79;100.00
69766;BME280;57039;48.014;21.384;2022-11-20T03:24:21;100351.88;;;0.76;100.00
69766;BME280;57039;48.014;21.384;2022-11-20T03:25:27;100359.69;;;0.73;100.00
69766;BME280;57039;48.014;21.384;2022-11-20T03:26:29;100356.22;;;0.74;100.00
69766;BME280;57039;48.014;21.384;2022-11-20T03:27:34;100353.69;;;0.72;100.00
69766;BME280;57039;48.014;21.384;2022-11-20T03:28:37;100352.06;;;0.66;100.00
69766;BME280;57039;48.014;21.384;2022-11-20T03:29:40;100353.75;;;0.67;100.00
69766;BME280;57039;48.014;21.384;2022-11-20T03:30:43;100354.63;;;0.66;100.00
69766;BME280;57039;48.014;21.384;2022-11-20T03:31:45;100356.31;;;0.69;100.00
69766;BME280;57039;48.014;21.384;2022-11-20T03:32:48;100356.31;;;0.69;100.00
69766;BME280;57039;48.014;21.384;2022-11-20T03:33:51;100358.91;;;0.67;100.00
69766;BME280;57039;48.014;21.384;2022-11-20T03:34:54;100361.44;;;0.71;100.00
69766;BME280;57039;48.014;21.384;2022-11-20T03:36:01;100362.31;;;0.70;100.00
69766;BME280;57039;48.014;21.384;2022-11-20T03:37:05;100366.59;;;0.71;100.00
69766;BME280;57039;48.014;21.384;2022-11-20T03:38:08;100363.97;;;0.74;100.00
69766;BME280;57039;48.014;21.384;2022-11-20T03:39:11;100376.88;;;0.75;100.00
69766;BME280;57039;48.014;21.384;2022-11-20T03:40:14;100370.00;;;0.73;100.00
69766;BME280;57039;48.014;21.384;2022-11-20T03:41:20;100364.06;;;0.69;100.00
69766;BME280;57039;48.014;21.384;2022-11-20T03:42:23;100375.97;;;0.75;100.00
69766;BME280;57039;48.014;21.384;2022-11-20T03:43:53;100382.03;;;0.75;100.00
69766;BME280;57039;48.014;21.384;2022-11-20T03:44:56;100361.28;;;0.80;100.00
69766;BME280;57039;48.014;21.384;2022-11-20T03:45:59;100374.19;;;0.81;100.00
69766;BME280;57039;48.014;21.384;2022-11-20T03:47:08;100373.31;;;0.81;100.00
69766;BME280;57039;48.014;21.384;2022-11-20T03:48:11;100368.22;;;0.76;100.00
69766;BME280;57039;48.014;21.384;2022-11-20T03:49:14;100375.06;;;0.79;100.00
69766;BME280;57039;48.014;21.384;2022-11-20T03:50:17;100373.34;;;0.79;100.00
69766;BME280;57039;48.014;21.384;2022-11-20T03:51:20;100384.56;;;0.78;100.00
69766;BME280;57039;48.014;21.384;2022-11-20T03:52:23;100372.50;;;0.77;100.00
69766;BME280;57039;48.014;21.384;2022-11-20T03:53:26;100369.06;;;0.78;100.00
69766;BME280;57039;48.014;21.384;2022-11-20T03:54:29;100369.06;;;0.78;100.00
69766;BME280;57039;48.014;21.384;2022-11-20T03:55:32;100363.91;;;0.78;100.00
69766;BME280;57039;48.014;21.384;2022-11-20T03:56:37;100351.78;;;0.80;100.00
69766;BME280;57039;48.014;21.384;2022-11-20T03:57:40;100350.94;;;0.80;100.00
69766;BME280;57039;48.014;21.384;2022-11-20T03:58:43;100345.72;;;0.83;100.00
69766;BME280;57039;48.014;21.384;2022-11-20T03:59:46;100346.56;;;0.83;100.00
69766;BME280;57039;48.014;21.384;2022-11-20T04:00:49;100354.31;;;0.85;100.00
69766;BME280;57039;48.014;21.384;2022-11-20T04:01:52;100362.94;;;0.84;100.00
69766;BME280;57039;48.014;21.384;2022-11-20T04:02:58;100364.62;;;0.85;100.00
69766;BME280;57039;48.014;21.384;2022-11-20T04:04:01;100368.06;;;0.85;100.00
69766;BME280;57039;48.014;21.384;2022-11-20T04:05:05;100357.75;;;0.85;100.00
69766;BME280;57039;48.014;21.384;2022-11-20T04:06:12;100357.72;;;0.87;100.00
69766;BME280;57039;48.014;21.384;2022-11-20T04:07:16;100355.87;;;0.92;100.00
69766;BME280;57039;48.014;21.384;2022-11-20T04:08:18;100351.63;;;0.91;100.00
69766;BME280;57039;48.014;21.384;2022-11-20T04:09:21;100351.56;;;0.93;100.00
69766;BME280;57039;48.014;21.384;2022-11-20T04:10:25;100351.56;;;0.94;100.00
69766;BME280;57039;48.014;21.384;2022-11-20T04:11:32;100353.25;;;0.95;100.00
69766;BME280;57039;48.014;21.384;2022-11-20T04:12:36;100359.25;;;0.97;100.00
69766;BME280;57039;48.014;21.384;2022-11-20T04:13:39;100362.66;;;0.99;100.00
69766;BME280;57039;48.014;21.384;2022-11-20T04:14:42;100372.09;;;1.02;100.00
69766;BME280;57039;48.014;21.384;2022-11-20T04:15:45;100371.25;;;1.00;100.00
69766;BME280;57039;48.014;21.384;2022-11-20T04:16:48;100369.53;;;1.00;100.00
69766;BME280;57039;48.014;21.384;2022-11-20T04:17:51;100373.00;;;0.99;100.00
69766;BME280;57039;48.014;21.384;2022-11-20T04:18:56;100367.84;;;0.99;100.00
69766;BME280;57039;48.014;21.384;2022-11-20T04:19:58;100368.63;;;1.03;100.00
69766;BME280;57039;48.014;21.384;2022-11-20T04:21:02;100372.00;;;1.06;100.00
69766;BME280;57039;48.014;21.384;2022-11-20T04:22:05;100375.41;;;1.08;100.00
69766;BME280;57039;48.014;21.384;2022-11-20T04:23:08;100373.69;;;1.09;100.00
69766;BME280;57039;48.014;21.384;2022-11-20T04:24:11;100355.72;;;1.01;100.00
69766;BME280;57039;48.014;21.384;2022-11-20T04:25:14;100371.00;;;1.13;100.00
69766;BME280;57039;48.014;21.384;2022-11-20T04:26:17;100365.81;;;1.13;100.00
69766;BME280;57039;48.014;21.384;2022-11-20T04:29:26;100352.09;;;1.11;100.00
69766;BME280;57039;48.014;21.384;2022-11-20T04:30:29;100355.59;;;1.07;100.00
69766;BME280;57039;48.014;21.384;2022-11-20T04:31:33;100357.31;;;1.08;100.00
69766;BME280;57039;48.014;21.384;2022-11-20T04:32:37;100360.75;;;1.09;100.00
69766;BME280;57039;48.014;21.384;2022-11-20T04:33:40;100357.34;;;1.07;100.00
69766;BME280;57039;48.014;21.384;2022-11-20T04:34:43;100347.06;;;1.05;100.00
69766;BME280;57039;48.014;21.384;2022-11-20T04:35:47;100340.97;;;1.08;100.00
69766;BME280;57039;48.014;21.384;2022-11-20T04:36:50;100343.56;;;1.06;100.00
69766;BME280;57039;48.014;21.384;2022-11-20T04:37:53;100344.47;;;1.04;100.00
69766;BME280;57039;48.014;21.384;2022-11-20T04:38:57;100344.59;;;0.99;100.00
69766;BME280;57039;48.014;21.384;2022-11-20T04:40:00;100337.75;;;0.95;100.00
69766;BME280;57039;48.014;21.384;2022-11-20T04:41:05;100341.22;;;0.94;100.00
69766;BME280;57039;48.014;21.384;2022-11-20T04:42:09;100336.94;;;0.93;100.00
69766;BME280;57039;48.014;21.384;2022-11-20T04:43:31;100342.19;;;0.90;100.00
69766;BME280;57039;48.014;21.384;2022-11-20T04:44:34;100343.13;;;0.84;100.00
69766;BME280;57039;48.014;21.384;2022-11-20T04:45:36;100348.28;;;0.84;100.00
69766;BME280;57039;48.014;21.384;2022-11-20T04:46:41;100347.41;;;0.87;100.00
69766;BME280;57039;48.014;21.384;2022-11-20T04:47:44;100353.34;;;0.90;100.00
69766;BME280;57039;48.014;21.384;2022-11-20T04:50:52;100352.50;;;0.90;100.00
69766;BME280;57039;48.014;21.384;2022-11-20T04:51:55;100337.88;;;0.89;100.00
69766;BME280;57039;48.014;21.384;2022-11-20T04:55:04;100326.62;;;0.91;100.00
69766;BME280;57039;48.014;21.384;2022-11-20T04:56:10;100318.09;;;0.88;100.00
69766;BME280;57039;48.014;21.384;2022-11-20T04:57:14;100312.09;;;0.86;100.00
69766;BME280;57039;48.014;21.384;2022-11-20T04:58:16;100303.62;;;0.81;100.00
69766;BME280;57039;48.014;21.384;2022-11-20T04:59:19;100307.78;;;0.88;100.00
69766;BME280;57039;48.014;21.384;2022-11-20T05:00:22;100304.28;;;0.90;100.00
69766;BME280;57039;48.014;21.384;2022-11-20T05:01:25;100308.50;;;0.95;100.00
69766;BME280;57039;48.014;21.384;2022-11-20T05:02:30;100311.87;;;0.98;100.00
69766;BME280;57039;48.014;21.384;2022-11-20T05:03:34;100312.72;;;0.99;100.00
69766;BME280;57039;48.014;21.384;2022-11-20T05:04:43;100314.41;;;1.01;100.00
69766;BME280;57039;48.014;21.384;2022-11-20T05:05:46;100311.00;;;0.99;100.00
69766;BME280;57039;48.014;21.384;2022-11-20T05:06:49;100308.44;;;0.98;100.00
69766;BME280;57039;48.014;21.384;2022-11-20T05:07:52;100311.91;;;0.97;100.00
69766;BME280;57039;48.014;21.384;2022-11-20T05:08:55;100309.34;;;0.95;100.00
69766;BME280;57039;48.014;21.384;2022-11-20T05:09:57;100311.09;;;0.95;100.00
69766;BME280;57039;48.014;21.384;2022-11-20T05:11:15;100307.66;;;0.94;100.00
69766;BME280;57039;48.014;21.384;2022-11-20T05:12:18;100312.81;;;0.94;100.00
69766;BME280;57039;48.014;21.384;2022-11-20T05:13:22;100309.28;;;0.98;100.00
69766;BME280;57039;48.014;21.384;2022-11-20T05:14:25;100305.91;;;0.96;100.00
69766;BME280;57039;48.014;21.384;2022-11-20T05:15:27;100305.84;;;0.99;100.00
69766;BME280;57039;48.014;21.384;2022-11-20T05:16:30;100296.38;;;0.98;100.00
69766;BME280;57039;48.014;21.384;2022-11-20T05:17:36;100294.69;;;0.97;100.00
69766;BME280;57039;48.014;21.384;2022-11-20T05:18:40;100289.56;;;0.94;100.00
69766;BME280;57039;48.014;21.384;2022-11-20T05:19:43;100298.22;;;0.91;100.00
69766;BME280;57039;48.014;21.384;2022-11-20T05:20:55;100289.66;;;0.89;100.00
69766;BME280;57039;48.014;21.384;2022-11-20T05:21:58;100297.47;;;0.86;100.00
69766;BME280;57039;48.014;21.384;2022-11-20T05:23:01;100292.34;;;0.85;100.00
69766;BME280;57039;48.014;21.384;2022-11-20T05:24:05;100297.44;;;0.88;100.00
69766;BME280;57039;48.014;21.384;2022-11-20T05:25:08;100293.97;;;0.89;100.00
69766;BME280;57039;48.014;21.384;2022-11-20T05:26:18;100281.91;;;0.89;100.00
69766;BME280;57039;48.014;21.384;2022-11-20T05:27:21;100281.88;;;0.91;100.00
69766;BME280;57039;48.014;21.384;2022-11-20T05:28:25;100280.97;;;0.94;100.00
69766;BME280;57039;48.014;21.384;2022-11-20T05:29:28;100287.00;;;0.94;100.00
69766;BME280;57039;48.014;21.384;2022-11-20T05:30:30;100279.25;;;0.94;100.00
69766;BME280;57039;48.014;21.384;2022-11-20T05:31:33;100289.53;;;0.96;100.00
69766;BME280;57039;48.014;21.384;2022-11-20T05:32:36;100278.34;;;0.95;100.00
69766;BME280;57039;48.014;21.384;2022-11-20T05:33:43;100281.78;;;0.96;100.00
69766;BME280;57039;48.014;21.384;2022-11-20T05:34:51;100274.03;;;0.96;100.00
69766;BME280;57039;48.014;21.384;2022-11-20T05:35:58;100263.87;;;0.88;100.00
69766;BME280;57039;48.014;21.384;2022-11-20T05:37:00;100276.75;;;0.89;100.00
69766;BME280;57039;48.014;21.384;2022-11-20T05:38:03;100275.94;;;0.87;100.00
69766;BME280;57039;48.014;21.384;2022-11-20T05:39:06;100288.88;;;0.86;100.00
69766;BME280;57039;48.014;21.384;2022-11-20T05:40:09;100280.25;;;0.87;100.00
69766;BME280;57039;48.014;21.384;2022-11-20T05:41:14;100293.97;;;0.89;100.00
69766;BME280;57039;48.014;21.384;2022-11-20T05:42:17;100278.41;;;0.92;100.00
69766;BME280;57039;48.014;21.384;2022-11-20T05:43:33;100271.56;;;0.91;100.00